createdAt,value
2018-07-15T00:01:24.813Z,17.54
2018-07-15T00:03:51.967Z,17.51
2018-07-15T00:06:19.103Z,17.60
2018-07-15T00:08:46.320Z,17.53
2018-07-15T00:11:13.500Z,17.38
2018-07-15T00:13:40.595Z,17.32
2018-07-15T00:16:07.800Z,17.12
2018-07-15T00:18:34.931Z,17.07
2018-07-15T00:21:02.399Z,16.67
2018-07-15T00:23:29.539Z,16.35
2018-07-15T00:25:56.743Z,16.60
2018-07-15T00:28:23.868Z,16.81
2018-07-15T00:30:51.010Z,16.93
2018-07-15T00:33:18.270Z,17.11
2018-07-15T00:35:45.407Z,17.19
2018-07-15T00:38:12.549Z,16.38
2018-07-15T00:40:39.724Z,16.26
2018-07-15T00:43:06.929Z,16.62
2018-07-15T00:45:34.061Z,16.82
2018-07-15T00:48:01.227Z,16.82
2018-07-15T00:50:28.376Z,16.65
2018-07-15T00:52:55.547Z,16.61
2018-07-15T00:55:22.752Z,16.47
2018-07-15T00:57:49.834Z,16.69
2018-07-15T01:01:21.306Z,16.61
2018-07-15T01:03:48.432Z,16.64
2018-07-15T01:06:15.568Z,16.62
2018-07-15T01:08:42.709Z,16.52
2018-07-15T01:11:16.644Z,16.02
2018-07-15T01:13:43.792Z,15.73
2018-07-15T01:16:10.936Z,15.86
2018-07-15T01:18:38.064Z,16.03
2018-07-15T01:21:05.213Z,16.00
2018-07-15T01:23:32.335Z,15.72
2018-07-15T01:25:59.508Z,15.92
2018-07-15T01:28:26.680Z,15.86
2018-07-15T01:30:53.780Z,15.99
2018-07-15T01:33:20.917Z,15.87
2018-07-15T01:35:48.009Z,16.19
2018-07-15T01:38:15.124Z,16.33
2018-07-15T01:40:42.297Z,16.12
2018-07-15T01:43:09.431Z,15.90
2018-07-15T01:45:36.632Z,16.01
2018-07-15T01:48:03.828Z,16.12
2018-07-15T01:50:31.028Z,16.28
2018-07-15T01:52:58.181Z,15.70
2018-07-15T01:55:25.357Z,15.68
2018-07-15T01:57:52.440Z,15.93
2018-07-15T02:00:19.572Z,16.00
2018-07-15T02:02:46.760Z,15.99
2018-07-15T02:05:13.994Z,16.00
2018-07-15T02:07:41.129Z,16.08
2018-07-15T02:10:08.274Z,16.00
2018-07-15T02:12:35.393Z,16.11
2018-07-15T02:15:02.585Z,15.71
2018-07-15T02:17:29.739Z,15.58
2018-07-15T02:19:56.932Z,15.72
2018-07-15T02:22:24.055Z,15.49
2018-07-15T02:24:51.375Z,15.45
2018-07-15T02:27:18.528Z,15.64
2018-07-15T02:29:45.703Z,15.64
2018-07-15T02:32:12.881Z,15.51
2018-07-15T02:34:40.100Z,15.52
2018-07-15T02:37:07.317Z,15.11
2018-07-15T02:39:34.464Z,14.86
2018-07-15T02:42:01.628Z,14.65
2018-07-15T02:44:28.757Z,14.72
2018-07-15T02:46:55.852Z,14.88
2018-07-15T02:49:22.968Z,14.99
2018-07-15T02:51:50.098Z,15.18
2018-07-15T02:54:17.244Z,15.03
2018-07-15T02:56:44.406Z,14.97
2018-07-15T02:59:11.553Z,15.06
2018-07-15T03:01:38.652Z,15.10
2018-07-15T03:04:05.793Z,15.01
2018-07-15T03:06:32.876Z,14.79
2018-07-15T03:09:00.048Z,14.99
2018-07-15T03:11:27.182Z,14.64
2018-07-15T03:13:54.308Z,14.35
2018-07-15T03:16:21.574Z,14.72
2018-07-15T03:18:48.666Z,14.71
2018-07-15T03:21:15.766Z,14.32
2018-07-15T03:23:42.896Z,14.35
2018-07-15T03:26:10.012Z,14.48
2018-07-15T03:28:37.131Z,14.78
2018-07-15T03:31:04.360Z,14.62
2018-07-15T03:33:31.524Z,14.12
2018-07-15T03:35:58.684Z,13.94
2018-07-15T03:38:25.777Z,14.24
2018-07-15T03:40:52.877Z,14.52
2018-07-15T03:43:20.063Z,14.58
2018-07-15T03:45:47.240Z,14.70
2018-07-15T03:48:14.360Z,14.87
2018-07-15T03:50:41.480Z,14.71
2018-07-15T03:53:08.617Z,14.78
2018-07-15T03:55:35.731Z,14.51
2018-07-15T03:58:02.873Z,14.22
2018-07-15T04:00:30.043Z,14.54
2018-07-15T04:02:57.169Z,14.55
2018-07-15T04:05:24.301Z,14.78
2018-07-15T04:07:51.405Z,15.02
2018-07-15T04:10:18.527Z,15.05
2018-07-15T04:12:45.672Z,15.05
2018-07-15T04:15:12.851Z,15.15
2018-07-15T04:17:39.969Z,15.24
2018-07-15T04:20:07.151Z,15.25
2018-07-15T04:22:34.285Z,15.23
2018-07-15T04:25:01.437Z,15.07
2018-07-15T04:27:28.541Z,14.95
2018-07-15T04:29:55.757Z,15.25
2018-07-15T04:32:22.905Z,15.24
2018-07-15T04:34:50.037Z,15.32
2018-07-15T04:37:18.123Z,15.59
2018-07-15T04:39:45.225Z,15.68
2018-07-15T04:42:12.455Z,15.65
2018-07-15T04:44:39.582Z,15.88
2018-07-15T04:47:06.702Z,15.96
2018-07-15T04:49:33.876Z,16.08
2018-07-15T04:52:01.016Z,16.08
2018-07-15T04:54:28.141Z,16.13
2018-07-15T04:56:55.228Z,16.28
2018-07-15T04:59:22.394Z,16.31
2018-07-15T05:01:49.496Z,16.14
2018-07-15T05:04:16.688Z,16.28
2018-07-15T05:06:44.228Z,16.52
2018-07-15T05:09:11.415Z,16.29
2018-07-15T05:11:40.671Z,16.56
2018-07-15T05:14:08.112Z,16.93
2018-07-15T05:16:35.579Z,16.96
2018-07-15T05:19:02.739Z,17.23
2018-07-15T05:21:29.954Z,17.40
2018-07-15T05:23:57.093Z,17.50
2018-07-15T05:26:24.222Z,17.72
2018-07-15T05:28:51.404Z,17.96
2018-07-15T05:31:18.541Z,18.16
2018-07-15T05:33:45.707Z,18.37
2018-07-15T05:36:12.889Z,18.28
2018-07-15T05:38:40.032Z,18.44
2018-07-15T05:42:26.918Z,18.47
2018-07-15T05:44:54.043Z,18.51
2018-07-15T05:47:21.180Z,18.68
2018-07-15T05:49:48.389Z,18.74
2018-07-15T05:52:15.534Z,18.77
2018-07-15T05:54:42.695Z,18.71
2018-07-15T05:57:09.839Z,18.80
2018-07-15T05:59:37.043Z,18.97
2018-07-15T06:02:04.204Z,19.20
2018-07-15T06:04:31.368Z,19.42
2018-07-15T06:06:58.529Z,19.63
2018-07-15T06:09:25.632Z,19.77
2018-07-15T06:11:52.812Z,19.93
2018-07-15T06:14:19.944Z,20.10
2018-07-15T06:16:47.104Z,20.49
2018-07-15T06:19:14.264Z,20.77
2018-07-15T06:21:41.452Z,21.08
2018-07-15T06:24:08.568Z,21.21
2018-07-15T06:26:35.677Z,21.12
2018-07-15T06:29:02.828Z,21.41
2018-07-15T06:31:29.970Z,21.51
2018-07-15T06:33:57.159Z,21.81
2018-07-15T06:36:24.309Z,21.97
2018-07-15T06:38:51.465Z,22.15
2018-07-15T06:41:18.608Z,22.32
2018-07-15T06:43:45.768Z,22.52
2018-07-15T06:46:12.931Z,22.51
2018-07-15T06:48:40.101Z,22.45
2018-07-15T06:51:07.472Z,22.57
2018-07-15T06:53:34.648Z,22.63
2018-07-15T06:56:02.619Z,22.91
2018-07-15T06:58:29.627Z,22.99
2018-07-15T07:00:56.811Z,23.02
2018-07-15T07:03:24.401Z,23.31
2018-07-15T07:05:51.577Z,23.32
2018-07-15T07:08:18.679Z,23.13
2018-07-15T07:10:45.853Z,23.30
2018-07-15T07:13:13.005Z,23.33
2018-07-15T07:15:40.168Z,23.57
2018-07-15T07:18:07.353Z,23.80
2018-07-15T07:20:34.496Z,23.67
2018-07-15T07:23:01.656Z,24.08
2018-07-15T07:25:28.795Z,24.12
2018-07-15T07:27:55.890Z,24.30
2018-07-15T07:30:23.022Z,24.38
2018-07-15T07:32:50.224Z,24.53
2018-07-15T07:35:17.467Z,24.57
2018-07-15T07:37:44.652Z,24.53
2018-07-15T07:40:11.804Z,25.00
2018-07-15T07:42:38.932Z,24.73
2018-07-15T07:45:06.092Z,24.78
2018-07-15T07:47:33.279Z,24.80
2018-07-15T07:50:00.428Z,24.63
2018-07-15T07:52:27.545Z,24.85
2018-07-15T07:54:54.685Z,25.24
2018-07-15T07:57:21.916Z,24.88
2018-07-15T07:59:49.061Z,25.03
2018-07-15T08:02:16.184Z,25.69
2018-07-15T08:04:43.352Z,25.49
2018-07-15T08:07:10.464Z,25.58
2018-07-15T08:09:37.651Z,25.68
2018-07-15T08:12:04.820Z,25.56
2018-07-15T08:14:32.066Z,25.90
2018-07-15T08:16:59.217Z,26.35
2018-07-15T08:19:26.391Z,26.28
2018-07-15T08:21:53.768Z,26.17
2018-07-15T08:24:20.935Z,26.18
2018-07-15T08:26:48.088Z,25.70
2018-07-15T08:29:15.256Z,25.87
2018-07-15T08:31:42.375Z,25.68
2018-07-15T08:34:09.513Z,25.73
2018-07-15T08:36:36.628Z,25.33
2018-07-15T08:39:05.612Z,25.75
2018-07-15T08:41:32.749Z,25.63
2018-07-15T08:43:59.896Z,25.18
2018-07-15T08:46:27.078Z,25.35
2018-07-15T08:48:54.254Z,25.33
2018-07-15T08:51:21.400Z,24.99
2018-07-15T08:53:48.562Z,24.86
2018-07-15T08:56:15.740Z,25.07
2018-07-15T08:58:42.876Z,25.59
2018-07-15T09:01:10.076Z,26.04
2018-07-15T09:03:37.283Z,25.96
2018-07-15T09:06:04.414Z,25.47
2018-07-15T09:08:31.568Z,25.12
2018-07-15T09:10:58.903Z,25.59
2018-07-15T09:13:26.161Z,26.10
2018-07-15T09:15:53.288Z,26.12
2018-07-15T09:18:20.454Z,26.20
2018-07-15T09:20:48.513Z,25.64
2018-07-15T09:23:15.658Z,25.42
2018-07-15T09:25:42.817Z,25.52
2018-07-15T09:28:09.994Z,25.75
2018-07-15T09:30:37.141Z,25.83
2018-07-15T09:33:04.721Z,26.12
2018-07-15T09:35:31.908Z,26.52
2018-07-15T09:37:58.997Z,26.02
2018-07-15T09:40:26.179Z,26.92
2018-07-15T09:42:53.357Z,26.94
2018-07-15T09:45:20.452Z,26.90
2018-07-15T09:47:47.608Z,27.04
2018-07-15T09:50:14.725Z,27.62
2018-07-15T09:52:41.913Z,27.97
2018-07-15T09:55:09.504Z,27.90
2018-07-15T09:57:36.775Z,28.01
2018-07-15T10:00:04.717Z,28.24
2018-07-15T10:02:31.858Z,28.08
2018-07-15T10:04:59.044Z,28.49
2018-07-15T10:07:26.192Z,28.66
2018-07-15T10:09:53.412Z,28.52
2018-07-15T10:12:20.599Z,28.63
2018-07-15T10:14:47.773Z,29.08
2018-07-15T10:17:14.961Z,28.29
2018-07-15T10:19:42.109Z,28.45
2018-07-15T10:22:09.224Z,28.55
2018-07-15T10:24:36.460Z,28.25
2018-07-15T10:27:03.751Z,28.33
2018-07-15T10:29:30.959Z,27.67
2018-07-15T10:31:58.161Z,27.24
2018-07-15T10:34:25.717Z,26.80
2018-07-15T10:36:52.832Z,26.13
2018-07-15T10:39:20.100Z,26.21
2018-07-15T10:41:47.521Z,25.98
2018-07-15T10:44:14.672Z,25.84
2018-07-15T10:46:41.891Z,26.02
2018-07-15T10:49:09.070Z,26.35
2018-07-15T10:51:36.230Z,26.64
2018-07-15T10:54:03.395Z,26.41
2018-07-15T10:56:30.554Z,27.40
2018-07-15T10:58:57.652Z,28.17
2018-07-15T11:01:24.841Z,28.53
2018-07-15T11:03:51.953Z,28.76
2018-07-15T11:06:19.133Z,28.55
2018-07-15T11:08:46.220Z,27.68
2018-07-15T11:11:13.388Z,27.54
2018-07-15T11:13:40.585Z,26.96
2018-07-15T11:16:07.718Z,27.20
2018-07-15T11:18:34.833Z,27.19
2018-07-15T11:21:02.041Z,28.09
2018-07-15T11:23:29.195Z,28.32
2018-07-15T11:25:56.361Z,28.90
2018-07-15T11:28:23.568Z,29.37
2018-07-15T11:30:50.919Z,29.41
2018-07-15T11:33:18.099Z,29.66
2018-07-15T11:35:45.252Z,29.92
2018-07-15T11:38:12.379Z,29.77
2018-07-15T11:40:39.488Z,29.29
2018-07-15T11:43:06.632Z,30.53
2018-07-15T11:45:33.789Z,30.16
2018-07-15T11:48:00.936Z,29.60
2018-07-15T11:50:28.059Z,29.48
2018-07-15T11:52:55.237Z,30.33
2018-07-15T11:55:22.361Z,29.74
2018-07-15T11:57:49.493Z,29.13
2018-07-15T12:00:16.663Z,28.69
2018-07-15T12:02:43.813Z,27.79
2018-07-15T12:05:10.992Z,26.81
2018-07-15T12:07:38.140Z,26.57
2018-07-15T12:10:05.710Z,26.61
2018-07-15T12:12:32.899Z,26.49
2018-07-15T12:15:00.079Z,26.75
2018-07-15T12:17:27.213Z,26.54
2018-07-15T12:19:54.396Z,26.62
2018-07-15T12:22:21.542Z,26.83
2018-07-15T12:24:48.682Z,26.55
2018-07-15T12:27:15.854Z,26.52
2018-07-15T12:29:43.025Z,26.33
2018-07-15T12:32:10.125Z,26.24
2018-07-15T12:34:37.332Z,26.10
2018-07-15T12:37:04.456Z,26.28
2018-07-15T12:39:31.601Z,26.38
2018-07-15T12:41:58.706Z,27.00
2018-07-15T12:44:25.872Z,27.09
2018-07-15T12:46:53.036Z,27.71
2018-07-15T12:49:20.165Z,28.14
2018-07-15T12:51:47.316Z,29.01
2018-07-15T12:54:14.497Z,29.28
2018-07-15T12:56:41.696Z,29.42
2018-07-15T12:59:08.885Z,29.83
2018-07-15T13:01:36.103Z,30.27
2018-07-15T13:04:03.272Z,30.50
2018-07-15T13:06:30.447Z,30.52
2018-07-15T13:08:57.617Z,29.70
2018-07-15T13:11:24.903Z,29.62
2018-07-15T13:13:52.085Z,29.92
2018-07-15T13:16:19.315Z,30.09
2018-07-15T13:18:46.448Z,30.21
2018-07-15T13:21:13.680Z,30.17
2018-07-15T13:23:40.844Z,29.34
2018-07-15T13:26:08.059Z,29.78
2018-07-15T13:28:35.320Z,30.00
2018-07-15T13:31:02.493Z,29.77
2018-07-15T13:33:29.675Z,30.49
2018-07-15T13:35:56.962Z,30.37
2018-07-15T13:38:24.109Z,30.12
2018-07-15T13:40:51.274Z,29.80
2018-07-15T13:43:18.428Z,28.96
2018-07-15T13:45:45.668Z,28.26
2018-07-15T13:48:12.855Z,28.07
2018-07-15T13:50:40.065Z,28.45
2018-07-15T13:53:07.275Z,28.26
2018-07-15T13:55:34.465Z,27.96
2018-07-15T13:58:01.629Z,27.72
2018-07-15T14:00:28.832Z,27.55
2018-07-15T14:02:56.044Z,27.41
2018-07-15T14:05:23.201Z,27.26
2018-07-15T14:07:50.389Z,26.92
2018-07-15T14:10:17.627Z,26.86
2018-07-15T14:12:44.833Z,26.50
2018-07-15T14:15:12.080Z,26.30
2018-07-15T14:17:39.225Z,25.69
2018-07-15T14:20:06.581Z,25.85
2018-07-15T14:22:33.759Z,25.73
2018-07-15T14:25:00.956Z,25.80
2018-07-15T14:27:28.120Z,25.65
2018-07-15T14:29:55.285Z,25.58
2018-07-15T14:32:22.491Z,25.59
2018-07-15T14:34:49.665Z,25.28
2018-07-15T14:37:16.848Z,25.17
2018-07-15T14:39:44.030Z,25.21
2018-07-15T14:42:11.252Z,25.26
2018-07-15T14:44:39.177Z,24.90
2018-07-15T14:47:06.368Z,24.91
2018-07-15T14:49:33.744Z,24.71
2018-07-15T14:52:04.512Z,24.81
2018-07-15T14:54:31.784Z,24.64
2018-07-15T14:56:58.926Z,24.32
2018-07-15T14:59:26.053Z,24.76
2018-07-15T15:01:54.076Z,24.72
2018-07-15T15:04:21.188Z,24.45
2018-07-15T15:06:48.496Z,24.50
2018-07-15T15:09:15.624Z,24.49
2018-07-15T15:11:43.140Z,24.43
2018-07-15T15:14:10.434Z,24.46
2018-07-15T15:16:37.609Z,24.76
2018-07-15T15:19:04.828Z,24.71
2018-07-15T15:21:32.285Z,24.83
2018-07-15T15:23:59.420Z,25.00
2018-07-15T15:26:26.645Z,24.52
2018-07-15T15:28:53.872Z,24.79
2018-07-15T15:31:21.027Z,24.76
2018-07-15T15:33:48.205Z,24.50
2018-07-15T15:36:15.351Z,24.56
2018-07-15T15:38:42.503Z,24.57
2018-07-15T15:41:09.637Z,24.68
2018-07-15T15:43:36.811Z,24.84
2018-07-15T15:46:04.036Z,25.07
2018-07-15T15:48:31.523Z,24.99
2018-07-15T15:50:58.650Z,25.17
2018-07-15T15:53:25.774Z,25.11
2018-07-15T15:55:53.010Z,24.94
2018-07-15T15:58:20.137Z,24.98
2018-07-15T16:00:47.313Z,24.94
2018-07-15T16:03:14.505Z,25.07
2018-07-15T16:05:41.645Z,24.91
2018-07-15T16:08:08.815Z,24.64
2018-07-15T16:10:36.023Z,24.01
2018-07-15T16:13:03.262Z,23.60
2018-07-15T16:15:30.456Z,23.92
2018-07-15T16:17:57.685Z,24.04
2018-07-15T16:20:24.918Z,24.08
2018-07-15T16:22:52.376Z,23.77
2018-07-15T16:25:19.563Z,23.79
2018-07-15T16:27:46.771Z,23.70
2018-07-15T16:30:14.038Z,23.62
2018-07-15T16:32:41.381Z,23.70
2018-07-15T16:35:08.543Z,23.92
2018-07-15T16:37:35.681Z,24.01
2018-07-15T16:40:02.997Z,23.93
2018-07-15T16:42:30.197Z,23.77
2018-07-15T16:44:58.522Z,23.95
2018-07-15T16:47:25.875Z,23.66
2018-07-15T16:49:53.069Z,23.43
2018-07-15T16:52:20.191Z,23.58
2018-07-15T16:54:47.379Z,23.48
2018-07-15T16:57:14.581Z,23.49
2018-07-15T16:59:41.741Z,23.50
2018-07-15T17:02:08.984Z,23.44
2018-07-15T17:04:36.170Z,23.60
2018-07-15T17:07:03.643Z,23.32
2018-07-15T17:09:30.867Z,23.32
2018-07-15T17:11:58.048Z,23.28
2018-07-15T17:14:25.201Z,23.11
2018-07-15T17:16:52.400Z,22.91
2018-07-15T17:19:19.582Z,22.85
2018-07-15T17:21:46.784Z,22.79
2018-07-15T17:24:14.102Z,22.85
2018-07-15T17:26:41.327Z,22.68
2018-07-15T17:29:08.509Z,22.66
2018-07-15T17:31:35.728Z,22.56
2018-07-15T17:34:02.908Z,22.33
2018-07-15T17:36:30.071Z,21.97
2018-07-15T17:38:57.259Z,21.73
2018-07-15T17:41:24.475Z,21.27
2018-07-15T17:43:51.701Z,21.02
2018-07-15T17:46:18.920Z,20.96
2018-07-15T17:48:46.183Z,20.83
2018-07-15T17:51:13.396Z,20.50
2018-07-15T17:53:40.540Z,20.50
2018-07-15T17:56:07.736Z,20.48
2018-07-15T17:58:35.064Z,20.31
2018-07-15T18:01:02.194Z,20.40
2018-07-15T18:03:29.423Z,20.70
2018-07-15T18:05:56.648Z,20.72
2018-07-15T18:08:23.840Z,20.21
2018-07-15T18:10:51.009Z,19.88
2018-07-15T18:13:18.206Z,19.84
2018-07-15T18:15:45.389Z,19.61
2018-07-15T18:18:12.524Z,19.60
2018-07-15T18:20:40.036Z,19.70
2018-07-15T18:23:07.281Z,19.71
2018-07-15T18:25:34.477Z,19.66
2018-07-15T18:28:01.662Z,19.67
2018-07-15T18:30:28.831Z,19.59
2018-07-15T18:32:56.017Z,19.65
2018-07-15T18:35:23.181Z,19.70
2018-07-15T18:37:50.480Z,19.71
2018-07-15T18:40:17.626Z,19.75
2018-07-15T18:42:44.792Z,19.68
2018-07-15T18:45:11.953Z,19.90
2018-07-15T18:47:39.182Z,19.90
2018-07-15T18:50:06.571Z,20.25
2018-07-15T18:52:33.807Z,20.43
2018-07-15T18:55:00.998Z,20.20
2018-07-15T18:57:28.196Z,19.98
2018-07-15T18:59:55.417Z,20.06
2018-07-15T19:02:22.604Z,20.21
2018-07-15T19:04:49.753Z,20.17
2018-07-15T19:07:16.904Z,20.41
2018-07-15T19:09:44.324Z,20.50
2018-07-15T19:12:11.528Z,20.48
2018-07-15T19:14:38.655Z,20.72
2018-07-15T19:19:39.804Z,20.80
2018-07-15T19:22:06.932Z,20.85
2018-07-15T19:24:34.180Z,20.34
2018-07-15T19:27:01.340Z,19.99
2018-07-15T19:29:28.563Z,19.88
2018-07-15T19:31:55.782Z,20.25
2018-07-15T19:34:23.013Z,19.92
2018-07-15T19:36:50.218Z,19.65
2018-07-15T19:39:17.420Z,20.01
2018-07-15T19:41:44.635Z,19.93
2018-07-15T19:44:11.731Z,19.79
2018-07-15T19:46:38.908Z,19.55
2018-07-15T19:49:06.041Z,19.78
2018-07-15T19:51:33.181Z,19.89
2018-07-15T19:54:00.342Z,19.82
2018-07-15T19:56:27.504Z,18.86
2018-07-15T19:58:54.643Z,18.58
2018-07-15T20:01:21.831Z,18.88
2018-07-15T20:03:48.901Z,19.16
2018-07-15T20:06:16.069Z,19.35
2018-07-15T20:08:43.203Z,19.24
2018-07-15T20:11:10.425Z,19.24
2018-07-15T20:13:37.584Z,19.18
2018-07-15T20:16:04.830Z,19.11
2018-07-15T20:18:32.032Z,19.05
2018-07-15T20:20:59.309Z,19.13
2018-07-15T20:23:26.417Z,19.34
2018-07-15T20:25:53.542Z,19.57
2018-07-15T20:28:20.725Z,19.56
2018-07-15T20:30:47.873Z,19.62
2018-07-15T20:33:15.009Z,19.24
2018-07-15T20:35:42.129Z,19.28
2018-07-15T20:38:09.256Z,19.29
2018-07-15T20:40:36.445Z,19.25
2018-07-15T20:43:03.659Z,19.00
2018-07-15T20:45:30.859Z,18.78
2018-07-15T20:47:58.037Z,19.04
2018-07-15T20:50:25.231Z,18.85
2018-07-15T20:52:52.680Z,18.70
2018-07-15T20:55:19.801Z,18.72
2018-07-15T20:57:46.956Z,18.80
2018-07-15T21:00:14.133Z,18.40
2018-07-15T21:02:41.307Z,18.22
2018-07-15T21:05:08.407Z,18.20
2018-07-15T21:07:35.505Z,18.19
2018-07-15T21:10:03.006Z,18.22
2018-07-15T21:12:30.148Z,18.08
2018-07-15T21:14:57.272Z,18.02
2018-07-15T21:17:24.428Z,17.90
2018-07-15T21:19:51.579Z,17.95
2018-07-15T21:22:18.711Z,18.32
2018-07-15T21:24:45.810Z,18.37
2018-07-15T21:27:12.931Z,18.66
2018-07-15T21:29:40.082Z,18.55
2018-07-15T21:32:07.226Z,18.44
2018-07-15T21:34:34.469Z,18.71
2018-07-15T21:37:01.609Z,18.42
2018-07-15T21:39:28.744Z,18.34
2018-07-15T21:41:55.884Z,18.41
2018-07-15T21:44:23.145Z,18.46
2018-07-15T21:46:50.199Z,18.71
2018-07-15T21:49:17.312Z,18.22
2018-07-15T21:51:44.420Z,18.42
2018-07-15T21:54:11.564Z,18.48
2018-07-15T21:56:45.396Z,18.56
2018-07-15T21:59:12.524Z,18.26
2018-07-15T22:01:41.719Z,18.36
2018-07-15T22:04:09.599Z,18.40
2018-07-15T22:06:48.288Z,18.55
2018-07-15T22:09:27.712Z,18.19
2018-07-15T22:11:54.988Z,18.34
2018-07-15T22:14:22.137Z,18.41
2018-07-15T22:16:49.321Z,18.56
2018-07-15T22:19:16.504Z,18.35
2018-07-15T22:21:43.681Z,18.18
2018-07-15T22:24:10.789Z,18.49
2018-07-15T22:26:37.960Z,18.58
2018-07-15T22:29:05.132Z,18.74
2018-07-15T22:31:32.261Z,18.74
2018-07-15T22:33:59.408Z,18.63
2018-07-15T22:36:26.575Z,18.33
2018-07-15T22:38:53.694Z,17.99
2018-07-15T22:41:20.869Z,17.70
2018-07-15T22:43:47.940Z,17.47
2018-07-15T22:46:15.104Z,17.65
2018-07-15T22:48:42.244Z,17.97
2018-07-15T22:51:09.392Z,18.17
2018-07-15T22:53:36.603Z,18.15
2018-07-15T22:56:03.823Z,18.08
2018-07-15T22:58:31.000Z,18.08
2018-07-15T23:00:58.160Z,17.73
2018-07-15T23:03:25.282Z,17.67
2018-07-15T23:06:03.822Z,17.82
2018-07-15T23:08:31.869Z,17.59
2018-07-15T23:10:59.026Z,17.58
2018-07-15T23:13:26.143Z,17.28
2018-07-15T23:15:53.308Z,17.24
2018-07-15T23:18:20.815Z,16.93
2018-07-15T23:20:48.633Z,17.23
2018-07-15T23:23:16.122Z,17.44
2018-07-15T23:25:43.274Z,17.30
2018-07-15T23:28:11.445Z,17.21
2018-07-15T23:30:39.382Z,17.50
2018-07-15T23:33:06.987Z,17.44
2018-07-15T23:35:34.194Z,17.49
2018-07-15T23:38:01.342Z,17.15
2018-07-15T23:40:28.492Z,16.59
2018-07-15T23:42:56.399Z,16.87
2018-07-15T23:45:24.449Z,16.79
2018-07-15T23:47:51.848Z,16.73
2018-07-15T23:50:18.992Z,16.91
2018-07-15T23:52:46.155Z,16.88
2018-07-15T23:55:13.312Z,16.51
2018-07-15T23:57:40.448Z,16.68
